Time;durP1;ratioP1;P1;durP2;ratioP2;P2;SDS_P1;SDS_P2;PMS_P1;PMS_P2;Temp;Humidity;BMP_temperature;BMP_pressure;BME280_temperature;BME280_humidity;BME280_pressure;Samples;Min_cycle;Max_cycle;Signal;HPM_P1;HPM_P2
2021/07/30 00:01:10;;;;;;;4.97;3.47;;;15.00;99.90;;;;;;6243040;23;20167;-86
2021/07/30 00:04:03;;;;;;;8.70;5.18;;;15.00;99.90;;;;;;6242710;23;20170;-87
2021/07/30 00:06:31;;;;;;;10.95;4.32;;;15.00;99.90;;;;;;6243566;23;20251;-87
2021/07/30 00:09:02;;;;;;;7.18;4.45;;;15.00;99.90;;;;;;6243736;23;20214;-86
2021/07/30 00:11:30;;;;;;;5.20;3.63;;;15.00;99.90;;;;;;6242224;23;20148;-87
2021/07/30 00:17:11;;;;;;;6.50;3.90;;;15.00;99.90;;;;;;6239381;23;20187;-86
2021/07/30 00:19:47;;;;;;;9.50;3.55;;;15.00;99.90;;;;;;6250506;23;20156;-86
2021/07/30 00:22:15;;;;;;;13.52;3.85;;;15.00;99.90;;;;;;6234908;23;20211;-86
2021/07/30 00:24:47;;;;;;;8.70;4.78;;;15.00;99.90;;;;;;6237288;23;20183;-86
2021/07/30 00:30:08;;;;;;;11.75;3.38;;;14.90;99.90;;;;;;6236846;23;20183;-86
2021/07/30 00:32:48;;;;;;;7.30;3.63;;;14.90;99.90;;;;;;6239578;23;20171;-86
2021/07/30 00:35:19;;;;;;;7.88;3.25;;;14.80;99.90;;;;;;6237654;23;20186;-86
2021/07/30 00:37:54;;;;;;;7.82;3.70;;;15.00;99.90;;;;;;6237909;23;20194;-86
2021/07/30 00:40:29;;;;;;;6.28;4.25;;;14.90;99.90;;;;;;6238924;23;20159;-87
2021/07/30 00:43:03;;;;;;;8.95;3.65;;;14.90;99.90;;;;;;6239038;23;20159;-87
2021/07/30 00:45:31;;;;;;;7.18;3.50;;;14.90;99.90;;;;;;6240247;23;20162;-86
2021/07/30 00:48:01;;;;;;;5.65;3.28;;;14.80;99.90;;;;;;6240186;23;20197;-86
2021/07/30 00:50:30;;;;;;;6.80;4.55;;;14.70;99.90;;;;;;6239957;23;20188;-86
2021/07/30 00:53:01;;;;;;;4.78;3.20;;;14.80;99.90;;;;;;6239788;23;20173;-87
2021/07/30 00:55:29;;;;;;;6.90;3.67;;;14.70;99.90;;;;;;6239430;23;20171;-87
2021/07/30 00:57:59;;;;;;;5.60;3.88;;;14.60;99.90;;;;;;6238877;23;20266;-86
2021/07/30 01:00:27;;;;;;;5.85;3.75;;;14.80;99.90;;;;;;6238521;23;20246;-86
2021/07/30 01:02:59;;;;;;;5.63;3.75;;;14.90;99.90;;;;;;6236942;23;20171;-86
2021/07/30 01:05:27;;;;;;;9.90;4.60;;;14.70;99.90;;;;;;6237917;23;20186;-87
2021/07/30 01:07:57;;;;;;;11.05;4.20;;;14.60;99.90;;;;;;6238640;23;20219;-85
2021/07/30 01:10:24;;;;;;;5.18;4.10;;;14.60;99.90;;;;;;6240557;23;20164;-87
2021/07/30 01:12:51;;;;;;;4.07;3.58;;;14.50;99.90;;;;;;6237691;23;20175;-85
2021/07/30 01:15:19;;;;;;;7.90;4.45;;;14.50;99.90;;;;;;6237177;23;20182;-86
2021/07/30 01:17:47;;;;;;;7.97;4.50;;;14.50;99.90;;;;;;6237944;23;20203;-86
2021/07/30 01:20:15;;;;;;;11.68;5.20;;;14.50;99.90;;;;;;6238220;23;20203;-86
2021/07/30 01:22:52;;;;;;;6.88;4.78;;;14.40;99.90;;;;;;6238352;23;20222;-85
2021/07/30 01:25:26;;;;;;;12.25;5.25;;;14.50;99.90;;;;;;6241421;23;20159;-86
2021/07/30 01:28:00;;;;;;;9.52;4.60;;;14.40;99.90;;;;;;6238660;23;20202;-86
2021/07/30 01:30:30;;;;;;;11.55;5.78;;;14.40;99.90;;;;;;6239472;23;20167;-86
2021/07/30 01:33:01;;;;;;;11.18;4.95;;;14.40;99.90;;;;;;6238778;23;20167;-86
2021/07/30 01:35:29;;;;;;;4.70;3.80;;;14.20;99.90;;;;;;6240131;23;20160;-88
2021/07/30 01:37:58;;;;;;;10.20;4.22;;;14.30;99.90;;;;;;6210638;23;20239;-87
2021/07/30 01:40:29;;;;;;;6.63;5.10;;;14.30;99.90;;;;;;6212312;23;20207;-86
2021/07/30 01:42:56;;;;;;;7.97;4.75;;;14.30;99.90;;;;;;6212543;23;20168;-88
2021/07/30 01:45:24;;;;;;;10.55;5.38;;;14.40;99.90;;;;;;6208342;23;20175;-86
2021/07/30 01:47:51;;;;;;;9.95;4.25;;;14.40;99.90;;;;;;6208085;23;20184;-86
2021/07/30 01:50:19;;;;;;;9.88;4.18;;;14.40;99.90;;;;;;6206789;23;20178;-87
2021/07/30 01:52:47;;;;;;;8.43;4.50;;;14.30;99.90;;;;;;6206536;23;20176;-86
2021/07/30 01:55:16;;;;;;;10.38;5.25;;;14.30;99.90;;;;;;6207817;23;20176;-87
2021/07/30 01:57:46;;;;;;;9.60;3.83;;;14.20;99.90;;;;;;6208563;23;20200;-85
2021/07/30 02:00:17;;;;;;;9.95;5.20;;;14.20;99.90;;;;;;6206771;23;20168;-85
2021/07/30 02:02:44;;;;;;;8.30;5.03;;;14.20;99.90;;;;;;6208528;23;20172;-85
2021/07/30 02:05:12;;;;;;;6.13;4.53;;;14.20;99.90;;;;;;6208144;23;20175;-87
2021/07/30 02:07:40;;;;;;;7.05;4.95;;;14.20;99.90;;;;;;6208318;23;20199;-85
2021/07/30 02:10:08;;;;;;;7.28;4.40;;;14.20;99.90;;;;;;6208692;23;20166;-86
2021/07/30 02:15:21;;;;;;;5.80;4.50;;;14.20;99.90;;;;;;6203953;23;20176;-87
2021/07/30 02:17:49;;;;;;;9.43;5.40;;;14.20;99.90;;;;;;6205704;23;20197;-87
2021/07/30 02:20:23;;;;;;;6.80;5.10;;;14.20;99.90;;;;;;6206721;23;20207;-86
2021/07/30 02:22:51;;;;;;;9.00;4.70;;;14.20;99.90;;;;;;6204539;23;20185;-87
2021/07/30 02:25:18;;;;;;;10.10;5.80;;;14.00;99.90;;;;;;6203755;23;20174;-87
2021/07/30 02:27:55;;;;;;;11.23;5.35;;;14.20;99.90;;;;;;6206464;23;20238;-88
2021/07/30 02:30:22;;;;;;;7.40;4.40;;;14.20;99.90;;;;;;6205030;23;20176;-86
2021/07/30 02:32:50;;;;;;;9.27;5.82;;;14.20;99.90;;;;;;6206592;23;20638;-86
2021/07/30 02:35:17;;;;;;;6.25;5.55;;;14.20;99.90;;;;;;6197792;23;20228;-85
2021/07/30 02:37:44;;;;;;;7.75;5.30;;;14.20;99.90;;;;;;6197648;23;20302;-85
2021/07/30 02:40:13;;;;;;;8.13;5.40;;;14.30;99.90;;;;;;6197484;23;20192;-84
2021/07/30 02:42:40;;;;;;;6.72;5.90;;;14.30;99.90;;;;;;6196863;23;20207;-84
2021/07/30 02:45:10;;;;;;;18.35;5.75;;;14.20;99.90;;;;;;6197129;23;20175;-84
2021/07/30 02:47:37;;;;;;;8.75;5.32;;;14.20;99.90;;;;;;6198233;23;20225;-85
2021/07/30 02:50:08;;;;;;;5.38;4.68;;;14.20;99.90;;;;;;6196694;23;20232;-85
2021/07/30 02:52:37;;;;;;;12.93;5.97;;;14.20;99.90;;;;;;6200199;23;20157;-85
2021/07/30 02:55:15;;;;;;;13.20;5.07;;;14.20;99.90;;;;;;6203622;23;20171;-84
2021/07/30 02:57:46;;;;;;;11.15;6.47;;;14.20;99.90;;;;;;6199350;23;20195;-84
2021/07/30 03:00:19;;;;;;;9.20;6.43;;;14.10;99.90;;;;;;6198212;23;20164;-84
2021/07/30 03:02:51;;;;;;;11.93;5.97;;;14.00;99.90;;;;;;6199081;23;20199;-86
2021/07/30 03:05:24;;;;;;;15.52;5.95;;;13.90;99.90;;;;;;6200170;23;20179;-85
2021/07/30 03:10:49;;;;;;;11.75;6.22;;;14.10;99.90;;;;;;6197353;23;20182;-85
2021/07/30 03:13:24;;;;;;;8.15;5.47;;;14.10;99.90;;;;;;6196669;23;20168;-85
2021/07/30 03:15:58;;;;;;;12.30;6.90;;;14.10;99.90;;;;;;6195851;23;20171;-85
2021/07/30 03:18:29;;;;;;;7.88;6.05;;;14.00;99.90;;;;;;6195415;23;20206;-85
2021/07/30 03:20:56;;;;;;;11.90;7.65;;;14.00;99.90;;;;;;6195104;23;20591;-85
2021/07/30 03:23:24;;;;;;;11.63;7.38;;;14.00;99.90;;;;;;6194395;23;20206;-85
2021/07/30 03:25:51;;;;;;;10.25;6.30;;;14.00;99.90;;;;;;6195263;23;20176;-85
2021/07/30 03:28:18;;;;;;;10.90;6.93;;;14.00;99.90;;;;;;6200962;23;20263;-85
2021/07/30 03:30:46;;;;;;;10.10;6.85;;;14.10;99.90;;;;;;6205157;23;20204;-86
2021/07/30 03:33:14;;;;;;;13.27;6.45;;;14.00;99.90;;;;;;6206338;23;20695;-86
2021/07/30 03:35:42;;;;;;;11.32;6.60;;;14.10;99.90;;;;;;6207788;23;20235;-86
2021/07/30 03:38:09;;;;;;;12.88;7.53;;;14.10;99.90;;;;;;6206478;23;20247;-85
2021/07/30 03:40:37;;;;;;;10.90;7.18;;;14.10;99.90;;;;;;6201537;23;20176;-85
2021/07/30 03:43:04;;;;;;;10.55;7.15;;;14.10;99.90;;;;;;6200054;23;20258;-86
2021/07/30 03:45:31;;;;;;;13.32;7.60;;;14.10;99.90;;;;;;6200521;23;20173;-86
2021/07/30 03:47:59;;;;;;;13.30;6.82;;;14.20;99.90;;;;;;6198796;23;20199;-86
2021/07/30 03:50:28;;;;;;;13.20;7.10;;;13.90;99.90;;;;;;6199631;23;20228;-85
2021/07/30 03:56:04;;;;;;;9.38;7.13;;;14.20;99.90;;;;;;6192716;23;20159;-87
2021/07/30 03:58:32;;;;;;;11.50;8.50;;;14.10;99.90;;;;;;6212882;23;20250;-85
2021/07/30 04:01:09;;;;;;;11.77;7.45;;;14.40;99.90;;;;;;6198198;23;20176;-85
2021/07/30 04:03:36;;;;;;;12.40;7.85;;;14.40;99.90;;;;;;6195986;23;20179;-86
2021/07/30 04:06:07;;;;;;;12.80;7.55;;;14.50;99.90;;;;;;6195459;23;20199;-86
2021/07/30 04:08:35;;;;;;;11.80;8.55;;;14.50;99.90;;;;;;6195564;23;20160;-85
2021/07/30 04:11:04;;;;;;;12.55;9.20;;;14.70;99.90;;;;;;6198717;23;20562;-85
2021/07/30 04:13:32;;;;;;;12.95;7.25;;;14.70;99.90;;;;;;6201913;23;20173;-86
2021/07/30 04:16:02;;;;;;;10.63;7.63;;;14.70;99.90;;;;;;6196997;23;20227;-85
2021/07/30 04:18:32;;;;;;;16.13;10.48;;;14.70;99.90;;;;;;6195140;23;20659;-86
2021/07/30 04:21:06;;;;;;;15.32;8.68;;;14.70;99.90;;;;;;6194147;23;20231;-85
2021/07/30 04:23:35;;;;;;;13.70;8.45;;;14.70;99.90;;;;;;6195551;23;20215;-85
2021/07/30 04:26:02;;;;;;;9.20;7.00;;;14.80;99.90;;;;;;6194690;23;20272;-86
2021/07/30 04:28:34;;;;;;;21.42;9.40;;;14.90;99.90;;;;;;6195470;23;20192;-86
2021/07/30 04:31:04;;;;;;;12.60;9.40;;;14.90;99.90;;;;;;6194885;23;20181;-86
2021/07/30 04:33:40;;;;;;;8.77;7.80;;;15.00;99.90;;;;;;6193031;23;20240;-84
2021/07/30 04:36:19;;;;;;;13.32;8.80;;;15.10;99.90;;;;;;6204122;23;20192;-85
2021/07/30 04:38:58;;;;;;;10.98;7.25;;;15.20;99.90;;;;;;6206245;23;20188;-84
2021/07/30 04:41:25;;;;;;;10.57;8.20;;;15.30;99.90;;;;;;6202929;23;20164;-84
2021/07/30 04:43:52;;;;;;;15.18;9.20;;;15.60;99.90;;;;;;6200593;23;20220;-87
2021/07/30 04:46:20;;;;;;;16.77;10.32;;;16.00;99.90;;;;;;6200458;23;20216;-86
2021/07/30 04:48:47;;;;;;;11.45;7.82;;;16.60;99.90;;;;;;6198328;23;20208;-85
2021/07/30 04:51:21;;;;;;;15.65;8.80;;;17.00;99.90;;;;;;6206413;23;20377;-86
2021/07/30 04:53:55;;;;;;;19.80;12.23;;;17.30;99.90;;;;;;6195177;23;20247;-85
2021/07/30 04:56:36;;;;;;;14.82;7.78;;;17.90;99.90;;;;;;6196466;23;20196;-86
2021/07/30 05:02:48;;;;;;;12.97;7.07;;;19.10;99.90;;;;;;6024320;23;20212;-86
2021/07/30 05:05:33;;;;;;;14.47;6.10;;;19.80;99.90;;;;;;6023904;23;20795;-84
2021/07/30 05:08:08;;;;;;;8.83;6.30;;;20.20;99.90;;;;;;6126515;23;20850;-86
2021/07/30 05:10:37;;;;;;;16.77;6.90;;;20.40;98.50;;;;;;6139869;23;20842;-86
2021/07/30 05:13:05;;;;;;;10.07;7.00;;;20.20;99.10;;;;;;6138120;23;20413;-87
2021/07/30 05:15:34;;;;;;;12.77;6.70;;;20.70;98.50;;;;;;6139645;23;20410;-86
2021/07/30 05:18:52;;;;;;;7.17;5.70;;;20.80;97.90;;;;;;6196838;23;20486;-86
2021/07/30 05:58:45;;;;;;;9.80;6.40;;;23.70;91.30;;;;;;6199893;23;20379;-86
2021/07/30 06:09:01;;;;;;;16.33;8.03;;;24.50;90.30;;;;;;6204522;23;20380;-86
2021/07/30 06:11:39;;;;;;;12.73;5.70;;;23.40;90.40;;;;;;6165718;23;20414;-87
2021/07/30 06:14:07;;;;;;;15.00;5.57;;;24.10;90.10;;;;;;6199199;23;20506;-86
2021/07/30 06:19:53;;;;;;;11.03;6.70;;;24.80;88.60;;;;;;6199066;23;20440;-85
2021/07/30 06:22:21;;;;;;;7.20;5.90;;;25.10;86.80;;;;;;6199957;23;20395;-87
2021/07/30 06:24:49;;;;;;;8.07;5.10;;;25.00;86.70;;;;;;6196460;23;20503;-86
2021/07/30 06:27:17;;;;;;;9.00;5.40;;;25.60;86.40;;;;;;6198892;23;20473;-85
2021/07/30 06:29:45;;;;;;;7.13;5.07;;;25.50;85.50;;;;;;6199542;23;20422;-85
2021/07/30 06:32:12;;;;;;;10.73;6.30;;;25.10;85.50;;;;;;6200108;23;20883;-85
2021/07/30 06:34:39;;;;;;;14.10;5.67;;;24.80;86.80;;;;;;6200495;23;20908;-86
2021/07/30 06:37:06;;;;;;;10.33;5.90;;;25.10;85.70;;;;;;6199715;23;20437;-85
2021/07/30 06:39:34;;;;;;;12.57;5.73;;;25.30;86.10;;;;;;6201196;23;20463;-86
2021/07/30 06:42:01;;;;;;;11.60;5.97;;;25.60;85.30;;;;;;6201056;23;20418;-86
2021/07/30 06:44:30;;;;;;;12.20;6.10;;;25.90;84.50;;;;;;6200279;23;20394;-85
2021/07/30 06:47:14;;;;;;;16.30;7.10;;;25.90;84.40;;;;;;6199463;23;20439;-85
2021/07/30 06:49:41;;;;;;;9.67;4.90;;;25.60;85.00;;;;;;6199988;23;20391;-85
2021/07/30 06:52:09;;;;;;;11.93;5.80;;;26.10;83.80;;;;;;6199624;23;20392;-85
2021/07/30 06:54:37;;;;;;;6.87;5.27;;;26.30;82.20;;;;;;6198973;23;20462;-85
2021/07/30 06:57:08;;;;;;;15.20;5.40;;;25.80;83.80;;;;;;6201328;23;20430;-86
2021/07/30 06:59:37;;;;;;;9.87;4.90;;;26.20;83.90;;;;;;6204854;23;20440;-86
2021/07/30 07:02:05;;;;;;;11.60;5.47;;;26.70;82.20;;;;;;6206180;23;20396;-86
2021/07/30 07:04:33;;;;;;;8.97;4.80;;;26.50;81.60;;;;;;6206179;23;20412;-86
2021/07/30 07:07:13;;;;;;;10.87;6.57;;;26.10;82.20;;;;;;6202813;23;20467;-86
2021/07/30 07:09:40;;;;;;;11.07;5.30;;;26.30;81.60;;;;;;6201875;23;20372;-86
2021/07/30 07:12:08;;;;;;;7.83;5.43;;;26.30;83.30;;;;;;6202677;23;20423;-86
2021/07/30 07:14:52;;;;;;;11.10;5.87;;;26.90;81.50;;;;;;6199933;23;20494;-85
2021/07/30 07:17:20;;;;;;;10.23;5.00;;;26.20;82.20;;;;;;6197902;23;20427;-86
2021/07/30 07:19:47;;;;;;;10.07;4.70;;;26.40;83.00;;;;;;6201448;23;20442;-85
2021/07/30 07:22:15;;;;;;;6.90;5.10;;;27.20;81.40;;;;;;6204110;23;20403;-87
2021/07/30 07:24:46;;;;;;;7.50;5.00;;;27.30;80.80;;;;;;6212125;23;20463;-86
2021/07/30 07:27:16;;;;;;;9.90;5.13;;;27.30;80.00;;;;;;6211962;23;20427;-88
2021/07/30 07:29:43;;;;;;;8.50;4.63;;;27.60;79.40;;;;;;6212804;23;20423;-85
2021/07/30 07:32:12;;;;;;;10.33;5.20;;;27.10;78.80;;;;;;6213418;23;20395;-86
2021/07/30 07:34:40;;;;;;;10.40;5.03;;;27.90;80.00;;;;;;6213427;23;20404;-85
2021/07/30 07:37:07;;;;;;;7.50;5.47;;;28.00;77.50;;;;;;6204420;23;20440;-86
2021/07/30 07:39:34;;;;;;;12.50;5.07;;;27.30;77.10;;;;;;6202755;23;20519;-86
2021/07/30 07:42:02;;;;;;;7.30;4.67;;;27.60;78.40;;;;;;6201336;23;20430;-85
2021/07/30 07:44:30;;;;;;;10.20;5.40;;;27.50;77.10;;;;;;6200271;23;20416;-85
2021/07/30 07:46:58;;;;;;;8.53;4.80;;;27.80;76.20;;;;;;6201744;23;20457;-85
2021/07/30 07:49:27;;;;;;;8.27;4.50;;;27.80;77.60;;;;;;6199816;23;20407;-85
2021/07/30 07:51:55;;;;;;;6.60;4.47;;;27.80;76.70;;;;;;6206978;23;20396;-85
2021/07/30 07:54:22;;;;;;;11.00;4.97;;;27.90;76.90;;;;;;6207042;23;20399;-85
2021/07/30 07:56:50;;;;;;;11.87;5.37;;;28.20;75.60;;;;;;6202247;23;20433;-86
2021/07/30 07:59:21;;;;;;;7.53;4.60;;;28.00;75.50;;;;;;6204468;23;20455;-85
2021/07/30 08:01:51;;;;;;;7.30;4.20;;;28.20;74.30;;;;;;6207506;23;20381;-85
2021/07/30 08:04:21;;;;;;;4.73;2.90;;;28.60;73.70;;;;;;6204347;23;20414;-86
2021/07/30 08:06:50;;;;;;;5.53;4.13;;;28.30;72.00;;;;;;6203716;23;20436;-85
2021/07/30 08:09:17;;;;;;;8.50;4.47;;;28.50;71.60;;;;;;6202570;23;20415;-86
2021/07/30 08:11:48;;;;;;;7.93;4.53;;;28.70;71.40;;;;;;6202889;23;20435;-86
2021/07/30 08:14:15;;;;;;;9.43;4.43;;;28.50;71.70;;;;;;6203655;23;20889;-86
2021/07/30 08:16:45;;;;;;;6.03;3.83;;;29.00;70.80;;;;;;6202971;23;20438;-87
2021/07/30 08:19:14;;;;;;;7.80;4.30;;;29.10;70.20;;;;;;6204080;23;20450;-85
2021/07/30 08:21:43;;;;;;;8.27;4.63;;;29.20;69.70;;;;;;6206248;23;20427;-84
2021/07/30 08:24:12;;;;;;;6.43;4.27;;;29.10;69.40;;;;;;6205543;23;20411;-86
2021/07/30 08:26:40;;;;;;;5.70;4.23;;;29.60;69.20;;;;;;6212046;23;20444;-87
2021/07/30 08:29:07;;;;;;;8.80;5.10;;;29.90;68.00;;;;;;6212517;23;20388;-88
2021/07/30 08:31:35;;;;;;;10.23;4.73;;;29.90;66.10;;;;;;6212195;23;20415;-85
2021/07/30 08:34:02;;;;;;;5.00;3.17;;;29.80;65.70;;;;;;6206025;23;20411;-85
2021/07/30 08:36:30;;;;;;;7.53;3.63;;;29.60;65.90;;;;;;6206188;23;20427;-85
2021/07/30 08:38:58;;;;;;;9.50;4.90;;;29.10;65.10;;;;;;6205232;23;21017;-86
2021/07/30 08:41:28;;;;;;;8.80;5.13;;;29.30;65.60;;;;;;6206853;23;20415;-85
2021/07/30 08:43:56;;;;;;;4.60;3.47;;;29.10;65.60;;;;;;6207807;23;20871;-86
2021/07/30 08:46:25;;;;;;;7.60;3.63;;;29.30;64.70;;;;;;6204684;23;20810;-85
2021/07/30 08:48:53;;;;;;;7.07;3.37;;;29.20;64.20;;;;;;6206037;23;20415;-86
2021/07/30 08:51:26;;;;;;;8.43;3.87;;;29.00;63.00;;;;;;6203568;23;20412;-85
2021/07/30 08:54:04;;;;;;;6.60;3.70;;;29.10;64.90;;;;;;6203277;23;20407;-86
2021/07/30 08:56:38;;;;;;;6.33;3.33;;;29.10;64.30;;;;;;6202764;23;20396;-86
2021/07/30 08:59:12;;;;;;;6.00;3.67;;;29.70;63.90;;;;;;6200785;23;20411;-83
2021/07/30 09:01:40;;;;;;;7.17;2.67;;;29.40;62.10;;;;;;6201460;23;20403;-85
2021/07/30 09:04:09;;;;;;;6.10;3.13;;;29.70;63.20;;;;;;6204058;23;20388;-86
2021/07/30 09:06:37;;;;;;;5.70;3.17;;;29.90;63.70;;;;;;6204216;23;20424;-87
2021/07/30 09:09:12;;;;;;;3.90;2.87;;;29.70;62.50;;;;;;6201984;23;20412;-84
2021/07/30 09:11:43;;;;;;;6.27;2.90;;;29.40;62.20;;;;;;6204846;23;20431;-85
2021/07/30 09:14:12;;;;;;;7.23;3.20;;;29.10;61.60;;;;;;6205409;23;20412;-86
2021/07/30 09:16:49;;;;;;;5.70;3.60;;;29.60;62.40;;;;;;6205549;23;20555;-86
2021/07/30 09:19:17;;;;;;;6.30;3.70;;;30.00;61.70;;;;;;6205094;23;20419;-85
2021/07/30 09:21:45;;;;;;;7.40;3.13;;;29.40;59.40;;;;;;6202466;23;20412;-84
2021/07/30 09:24:17;;;;;;;6.50;2.80;;;29.40;60.40;;;;;;6203955;23;20471;-84
2021/07/30 09:26:50;;;;;;;4.30;3.30;;;29.60;60.40;;;;;;6205169;23;20467;-87
2021/07/30 09:29:20;;;;;;;7.10;3.60;;;29.40;59.40;;;;;;6204256;23;20411;-87
2021/07/30 09:31:50;;;;;;;7.27;3.60;;;29.30;60.00;;;;;;6203630;23;20418;-85
2021/07/30 09:34:21;;;;;;;6.00;2.73;;;28.60;60.20;;;;;;6205495;23;20417;-85
2021/07/30 09:36:51;;;;;;;7.40;4.13;;;28.70;61.30;;;;;;6206833;23;20431;-84
2021/07/30 09:39:21;;;;;;;5.10;3.20;;;28.10;60.80;;;;;;6211855;23;20478;-85
2021/07/30 09:42:00;;;;;;;7.27;3.43;;;28.10;61.80;;;;;;6211495;23;20426;-86
2021/07/30 09:44:29;;;;;;;5.00;2.70;;;27.60;62.80;;;;;;6212714;23;20399;-86
2021/07/30 09:47:08;;;;;;;6.00;3.10;;;27.40;64.60;;;;;;6211659;23;20436;-84
2021/07/30 09:49:40;;;;;;;6.63;4.10;;;27.60;64.40;;;;;;6210705;23;20407;-84
2021/07/30 09:52:11;;;;;;;6.60;3.63;;;27.90;65.70;;;;;;6208861;23;20419;-84
2021/07/30 09:54:45;;;;;;;8.37;3.00;;;28.00;63.60;;;;;;6207297;23;20728;-86
2021/07/30 09:57:15;;;;;;;6.50;3.80;;;28.00;64.40;;;;;;6203692;23;20482;-86
2021/07/30 09:59:43;;;;;;;6.37;3.83;;;28.00;64.30;;;;;;6202447;23;20463;-85
2021/07/30 10:02:19;;;;;;;15.57;4.30;;;27.80;64.40;;;;;;6203482;23;20388;-85
2021/07/30 10:04:49;;;;;;;4.90;3.13;;;27.80;63.80;;;;;;6200949;23;20408;-85
2021/07/30 10:07:55;;;;;;;4.83;3.90;;;28.00;65.30;;;;;;6204016;23;20459;-87
2021/07/30 10:10:27;;;;;;;6.97;4.47;;;28.20;65.30;;;;;;6212668;23;20482;-85
2021/07/30 10:12:58;;;;;;;5.80;3.60;;;28.10;64.10;;;;;;6212425;23;20415;-86
2021/07/30 10:15:27;;;;;;;7.13;3.90;;;28.30;64.50;;;;;;6211718;23;20432;-86
2021/07/30 10:17:57;;;;;;;6.53;3.10;;;28.60;64.30;;;;;;6210568;23;20486;-87
2021/07/30 10:20:26;;;;;;;6.63;3.70;;;28.80;64.10;;;;;;6209799;23;20450;-85
2021/07/30 10:22:57;;;;;;;4.70;3.27;;;28.70;63.80;;;;;;6203452;23;20495;-85
2021/07/30 10:25:35;;;;;;;7.00;3.60;;;28.70;63.00;;;;;;6199578;23;20439;-86
2021/07/30 10:28:18;;;;;;;8.07;4.37;;;29.40;63.50;;;;;;6210252;23;20419;-85
2021/07/30 10:30:56;;;;;;;5.67;3.80;;;29.80;61.60;;;;;;6208276;23;20431;-84
2021/07/30 10:33:49;;;;;;;6.87;3.87;;;29.20;61.40;;;;;;6200720;23;20376;-85
2021/07/30 10:36:37;;;;;;;6.17;3.17;;;28.90;62.10;;;;;;6188488;23;20455;-85
2021/07/30 10:39:15;;;;;;;7.77;3.70;;;28.60;63.00;;;;;;6201491;23;20791;-85
2021/07/30 10:42:08;;;;;;;5.10;3.60;;;28.50;62.50;;;;;;6202361;23;20439;-84
2021/07/30 10:44:57;;;;;;;9.43;3.50;;;27.90;61.70;;;;;;6200877;23;20373;-86
2021/07/30 10:47:27;;;;;;;5.13;3.60;;;27.00;64.60;;;;;;6204138;23;20447;-85
2021/07/30 10:49:57;;;;;;;5.73;3.90;;;26.90;65.90;;;;;;6206399;23;20408;-85
2021/07/30 10:52:45;;;;;;;5.70;3.53;;;26.70;65.90;;;;;;6209211;23;20407;-86
2021/07/30 10:55:47;;;;;;;4.73;3.20;;;26.40;66.90;;;;;;6209936;23;20415;-86
2021/07/30 10:58:14;;;;;;;4.73;2.87;;;26.30;68.20;;;;;;6201764;23;20490;-83
2021/07/30 11:01:01;;;;;;;6.67;3.10;;;26.30;66.80;;;;;;6197849;23;20438;-84
2021/07/30 11:03:28;;;;;;;7.43;4.07;;;26.40;68.50;;;;;;6201773;23;20407;-85
2021/07/30 11:06:11;;;;;;;4.53;3.60;;;26.00;67.30;;;;;;6198584;23;20427;-85
2021/07/30 11:09:12;;;;;;;5.50;3.20;;;25.80;68.70;;;;;;6205182;23;20513;-84
2021/07/30 11:11:40;;;;;;;7.70;4.57;;;25.80;67.40;;;;;;6204316;23;20521;-84
2021/07/30 11:14:08;;;;;;;4.07;3.10;;;25.80;67.80;;;;;;6201731;23;20420;-84
2021/07/30 11:16:36;;;;;;;4.00;3.00;;;25.70;69.60;;;;;;6205649;23;20445;-84
2021/07/30 11:19:04;;;;;;;4.47;3.50;;;25.80;68.90;;;;;;6202896;23;20489;-86
2021/07/30 11:21:32;;;;;;;4.13;2.97;;;26.00;70.00;;;;;;6202026;23;20501;-86
2021/07/30 11:24:00;;;;;;;5.37;3.23;;;26.10;68.40;;;;;;6201910;23;20419;-86
2021/07/30 11:26:33;;;;;;;5.90;3.80;;;26.00;69.10;;;;;;6204029;23;20462;-85
2021/07/30 11:29:09;;;;;;;7.33;3.17;;;26.20;69.10;;;;;;6209126;23;20462;-84
2021/07/30 11:31:50;;;;;;;8.80;3.57;;;25.70;67.60;;;;;;6207157;23;20435;-85
2021/07/30 11:34:18;;;;;;;6.47;3.70;;;25.80;68.30;;;;;;6200883;23;20403;-87
2021/07/30 11:36:48;;;;;;;6.30;2.90;;;25.50;69.20;;;;;;6202076;23;20505;-85
2021/07/30 11:39:16;;;;;;;7.30;3.47;;;25.80;69.40;;;;;;6202767;23;20469;-84
2021/07/30 11:41:52;;;;;;;3.77;3.00;;;26.00;69.90;;;;;;6204178;23;20446;-84
2021/07/30 11:44:20;;;;;;;6.80;4.50;;;25.60;69.60;;;;;;6205755;23;20420;-85
2021/07/30 11:46:57;;;;;;;8.30;5.20;;;25.50;71.50;;;;;;6206549;23;20434;-84
2021/07/30 11:49:34;;;;;;;8.60;4.70;;;25.50;71.40;;;;;;6207981;23;20390;-86
2021/07/30 11:52:03;;;;;;;6.00;3.27;;;25.80;71.00;;;;;;6208981;23;20421;-85
2021/07/30 11:54:31;;;;;;;5.70;3.90;;;25.80;70.80;;;;;;6208622;23;20415;-86
2021/07/30 11:57:01;;;;;;;6.67;4.37;;;25.40;71.20;;;;;;6204949;23;20449;-86
2021/07/30 11:59:50;;;;;;;7.43;4.83;;;25.20;72.10;;;;;;6204563;23;20392;-85
2021/07/30 12:02:18;;;;;;;7.67;5.90;;;25.20;73.00;;;;;;6203674;23;20428;-86
2021/07/30 12:04:53;;;;;;;6.23;2.87;;;25.40;73.50;;;;;;6202904;23;20415;-84
2021/07/30 12:07:28;;;;;;;4.50;3.50;;;25.70;72.30;;;;;;6204354;23;20435;-85
2021/07/30 12:09:59;;;;;;;4.33;3.10;;;25.90;73.10;;;;;;6208691;23;20402;-85
2021/07/30 12:12:28;;;;;;;3.60;2.97;;;26.00;72.90;;;;;;6203234;23;20415;-85
2021/07/30 12:15:02;;;;;;;6.77;3.10;;;26.20;72.60;;;;;;6202608;23;20440;-85
2021/07/30 12:17:32;;;;;;;4.30;2.83;;;26.00;72.50;;;;;;6200760;23;20759;-86
2021/07/30 12:20:02;;;;;;;4.00;2.43;;;26.10;73.60;;;;;;6200932;23;20774;-87
2021/07/30 12:22:38;;;;;;;5.37;3.47;;;26.10;72.50;;;;;;6201332;23;20437;-85
2021/07/30 12:25:07;;;;;;;6.43;3.13;;;25.80;73.90;;;;;;6198764;23;20407;-85
2021/07/30 12:27:40;;;;;;;7.13;3.80;;;25.80;74.30;;;;;;6199815;23;20416;-85
2021/07/30 12:30:09;;;;;;;4.13;3.40;;;25.60;75.00;;;;;;6201477;23;20496;-86
2021/07/30 12:32:41;;;;;;;7.73;3.13;;;25.30;76.40;;;;;;6203103;23;20486;-85
2021/07/30 12:35:11;;;;;;;4.00;3.60;;;25.30;76.70;;;;;;6202303;23;20422;-84
2021/07/30 12:37:40;;;;;;;3.93;2.90;;;25.50;77.00;;;;;;6201566;23;20425;-84
2021/07/30 12:40:21;;;;;;;5.20;3.20;;;25.60;77.10;;;;;;6202395;23;20415;-85
2021/07/30 12:42:48;;;;;;;11.13;3.80;;;25.70;75.90;;;;;;6209091;23;20394;-86
2021/07/30 12:45:16;;;;;;;4.53;2.87;;;26.10;74.90;;;;;;6211353;23;20410;-87
2021/07/30 12:47:59;;;;;;;8.60;3.00;;;26.30;74.70;;;;;;6212116;23;20419;-85
2021/07/30 12:50:31;;;;;;;6.50;3.10;;;26.40;74.70;;;;;;6200423;23;20415;-85
2021/07/30 12:53:13;;;;;;;10.57;5.10;;;26.30;74.20;;;;;;6200415;23;20450;-84
2021/07/30 12:56:02;;;;;;;7.60;3.77;;;26.40;75.10;;;;;;6201467;23;20435;-84
2021/07/30 12:58:32;;;;;;;8.30;2.73;;;26.40;75.30;;;;;;6201457;23;20376;-84
2021/07/30 13:01:14;;;;;;;6.93;3.47;;;26.30;74.90;;;;;;6181477;23;20433;-83
2021/07/30 13:03:44;;;;;;;6.83;4.57;;;26.20;75.90;;;;;;6209567;23;20413;-85
2021/07/30 13:09:05;;;;;;;5.53;2.87;;;25.70;77.60;;;;;;6199045;23;20449;-86
2021/07/30 13:11:33;;;;;;;7.63;3.80;;;25.70;77.90;;;;;;6202250;23;20434;-86
2021/07/30 13:14:00;;;;;;;5.13;2.97;;;25.70;77.40;;;;;;6200758;23;20463;-83
2021/07/30 13:16:27;;;;;;;5.20;3.27;;;25.60;77.80;;;;;;6202136;23;20446;-85
2021/07/30 13:18:59;;;;;;;5.30;3.10;;;25.90;78.70;;;;;;6202653;23;20407;-85
2021/07/30 13:21:26;;;;;;;7.40;3.90;;;25.90;78.10;;;;;;6203460;23;20456;-84
2021/07/30 13:23:54;;;;;;;6.97;3.63;;;26.00;78.10;;;;;;6204917;23;20394;-84
2021/07/30 13:29:02;;;;;;;5.67;4.60;;;25.90;79.00;;;;;;6209246;23;20421;-86
2021/07/30 13:31:30;;;;;;;5.80;4.10;;;25.90;79.70;;;;;;6209004;23;20411;-85
2021/07/30 13:33:59;;;;;;;8.30;6.33;;;26.00;79.70;;;;;;6207970;23;20418;-88
2021/07/30 13:36:27;;;;;;;5.87;3.50;;;26.00;79.90;;;;;;6211011;23;20395;-85
2021/07/30 13:38:54;;;;;;;8.70;4.63;;;25.90;79.10;;;;;;6206921;23;20450;-84
2021/07/30 13:41:21;;;;;;;9.43;4.53;;;25.90;80.00;;;;;;6203321;23;20458;-87
2021/07/30 13:43:49;;;;;;;9.27;7.00;;;26.10;81.90;;;;;;6202998;23;20404;-86
2021/07/30 13:46:18;;;;;;;8.90;3.60;;;26.30;83.00;;;;;;6201552;23;20442;-85
2021/07/30 13:48:48;;;;;;;7.00;2.87;;;26.40;82.60;;;;;;6203635;23;20411;-87
2021/07/30 13:51:18;;;;;;;7.23;3.40;;;26.50;80.40;;;;;;6203745;23;20418;-84
2021/07/30 13:53:47;;;;;;;3.00;2.53;;;26.50;80.30;;;;;;6206877;23;20400;-85
2021/07/30 13:56:25;;;;;;;5.07;3.23;;;26.40;80.50;;;;;;6202138;23;20493;-84
2021/07/30 14:02:03;;;;;;;5.47;3.80;;;25.60;81.60;;;;;;6204336;23;20487;-85
2021/07/30 14:04:41;;;;;;;5.27;3.47;;;25.30;83.00;;;;;;6200815;23;20496;-84
2021/07/30 14:07:14;;;;;;;3.80;3.33;;;25.30;83.90;;;;;;6198788;23;20425;-84
2021/07/30 14:09:49;;;;;;;6.30;3.93;;;25.30;82.50;;;;;;6201139;23;20419;-84
2021/07/30 14:12:22;;;;;;;8.13;3.30;;;25.40;83.10;;;;;;6200567;23;20388;-83
2021/07/30 14:15:04;;;;;;;6.00;3.53;;;25.60;82.90;;;;;;6201314;23;20416;-85
2021/07/30 14:20:24;;;;;;;4.80;3.47;;;25.80;82.70;;;;;;6201797;23;20472;-85
2021/07/30 14:25:44;;;;;;;8.70;3.90;;;25.80;83.30;;;;;;6203303;23;20458;-84